Main page
METAR-TAF:

METAR-TAF

Airports :

Norrköping, Sweden

Norrköping Airport

latitude: 58-35N, longitude: 016-09E, elevation: 34 m

Current weather observation

The report was made 17 minutes ago, at 17:50 UTC
Wind 11 kt from the West/Southwest
Temperature 9°C
Humidity 93%
Pressure 997 hPa
Visibility 10 km or more
Few clouds at a height of 1600 ft
Scattered clouds at a height of 2200 ft
Broken clouds at a height of 3200 ft

METAR: ESSP 241750Z 25011KT 9999 FEW016 SCT022 BKN032 09/08 Q0997

Time: 20:07 (18:07 UTC)

Forecast

The report was made 37 minutes ago, at 17:30 UTC
Forecast valid from 24 at 18 UTC to 24 at 22 UTC
Wind 6 kt from the Southwest
Visibility 10 km or more
Broken clouds at a height of 2000 ft
light rain
Probability 40%
from 24 at 18 UTC to 24 at 22 UTC
Visibility: 4000 m
Broken clouds at a height of 800 ft
mist

TAF: ESSP 241730Z 2418/2422 23006KT 9999 -RA BKN020 PROB40 2418/2422 4000 BR BKN008

Weather observations and forecasts of more than 4000 airports (METAR and TAF reports).

The available stations are represented by yellow and red dots on the map.

Hover mouse over dot to see the name of the station.

Then click to see weather observations and forecasts.

To change the map : click on the green buttons with a black cross to zoom in, on the green button with a dash to zoom out, or on the green arrows for adjacent maps.


METAR-TAF: